Time;durP1;ratioP1;P1;durP2;ratioP2;P2;SDS_P1;SDS_P2;PMS_P1;PMS_P2;Temp;Humidity;BMP_temperature;BMP_pressure;BME280_temperature;BME280_humidity;BME280_pressure;Samples;Min_cycle;Max_cycle;Signal;HPM_P1;HPM_P2
2022/03/25 00:01:21;;;;;;;40.88;21.30;;;12.30;99.90;;;;;;5037595;28;20172;-83
2022/03/25 00:03:47;;;;;;;34.80;21.17;;;12.20;99.90;;;;;;5037098;28;20222;-82
2022/03/25 00:06:12;;;;;;;47.13;24.27;;;12.20;99.90;;;;;;5037315;28;20175;-81
2022/03/25 00:08:38;;;;;;;42.63;22.98;;;12.30;99.90;;;;;;5036993;28;20243;-85
2022/03/25 00:11:04;;;;;;;44.97;23.10;;;12.20;99.90;;;;;;5019954;28;20604;-85
2022/03/25 00:13:30;;;;;;;45.95;22.92;;;12.20;99.90;;;;;;5037762;28;20195;-86
2022/03/25 00:15:56;;;;;;;51.13;22.90;;;12.20;99.90;;;;;;5046514;28;20176;-86
2022/03/25 00:18:22;;;;;;;44.20;22.92;;;12.10;99.90;;;;;;5049804;28;20180;-82
2022/03/25 00:20:49;;;;;;;61.78;24.38;;;12.00;99.90;;;;;;5050234;28;20225;-86
2022/03/25 00:23:15;;;;;;;52.67;25.88;;;12.00;99.90;;;;;;5050748;28;20621;-85
2022/03/25 00:25:41;;;;;;;51.33;24.02;;;12.00;99.90;;;;;;5031749;28;20615;-86
2022/03/25 00:28:07;;;;;;;47.13;24.73;;;11.90;99.90;;;;;;5037608;28;20188;-86
2022/03/25 00:30:33;;;;;;;50.83;23.52;;;12.00;99.90;;;;;;5019226;28;20194;-79
2022/03/25 00:32:58;;;;;;;48.72;23.73;;;11.90;99.90;;;;;;5019272;28;20671;-79
2022/03/25 00:35:24;;;;;;;46.60;24.65;;;11.90;99.90;;;;;;5018332;28;20203;-85
2022/03/25 00:37:50;;;;;;;46.65;22.35;;;11.70;99.90;;;;;;5035709;28;20270;-85
2022/03/25 00:40:16;;;;;;;49.40;23.77;;;11.60;99.90;;;;;;5036090;28;20190;-86
2022/03/25 00:42:41;;;;;;;40.05;22.60;;;11.70;99.90;;;;;;5036163;28;20225;-79
2022/03/25 00:45:08;;;;;;;44.17;22.58;;;11.70;99.90;;;;;;5035601;28;20565;-79
2022/03/25 00:47:36;;;;;;;46.00;22.60;;;11.70;99.90;;;;;;5042437;28;20192;-85
2022/03/25 00:50:03;;;;;;;43.38;23.15;;;11.60;99.90;;;;;;5044351;28;20170;-78
2022/03/25 00:52:28;;;;;;;52.38;23.30;;;11.50;99.90;;;;;;5056734;28;20168;-81
2022/03/25 00:54:54;;;;;;;40.13;22.48;;;11.60;99.90;;;;;;5053469;28;20190;-79
2022/03/25 00:57:20;;;;;;;40.65;22.08;;;11.40;99.90;;;;;;5040309;28;20278;-84
2022/03/25 00:59:46;;;;;;;47.60;25.13;;;11.30;99.90;;;;;;5042023;28;20168;-84
2022/03/25 01:02:12;;;;;;;43.17;24.00;;;11.40;99.90;;;;;;5039723;28;20191;-82
2022/03/25 01:04:37;;;;;;;51.10;26.35;;;11.30;99.90;;;;;;5034997;28;20281;-77
2022/03/25 01:07:04;;;;;;;57.20;27.15;;;11.40;99.90;;;;;;5038735;28;20199;-84
2022/03/25 01:09:30;;;;;;;53.17;25.08;;;11.40;99.90;;;;;;5042823;28;20168;-81
2022/03/25 01:11:56;;;;;;;57.92;25.83;;;11.40;99.90;;;;;;5041197;28;20202;-85
2022/03/25 01:14:24;;;;;;;57.28;25.73;;;11.30;99.90;;;;;;5009556;28;20198;-81
2022/03/25 01:16:50;;;;;;;53.83;26.20;;;11.30;99.90;;;;;;5008681;28;20196;-82
2022/03/25 01:19:16;;;;;;;53.35;25.40;;;11.40;99.90;;;;;;5042465;28;20683;-87
2022/03/25 01:21:41;;;;;;;55.75;25.98;;;11.30;99.90;;;;;;5043389;28;20168;-78
2022/03/25 01:24:07;;;;;;;57.42;26.33;;;11.20;99.90;;;;;;5039140;28;20214;-84
2022/03/25 01:26:33;;;;;;;48.60;25.00;;;11.10;99.90;;;;;;5037736;28;20192;-78
2022/03/25 01:28:59;;;;;;;50.45;22.95;;;11.10;99.90;;;;;;5019913;28;20184;-85
2022/03/25 01:31:24;;;;;;;49.83;24.67;;;11.10;99.90;;;;;;5039117;28;20203;-87
2022/03/25 01:33:50;;;;;;;39.25;22.25;;;10.90;99.90;;;;;;5022903;28;20270;-85
2022/03/25 01:36:16;;;;;;;42.20;23.67;;;10.90;99.90;;;;;;5040303;28;20168;-79
2022/03/25 01:38:44;;;;;;;53.47;24.02;;;10.70;99.90;;;;;;5037815;28;20172;-85
2022/03/25 01:41:14;;;;;;;53.40;24.85;;;10.60;99.90;;;;;;5036723;28;20159;-78
2022/03/25 01:43:59;;;;;;;54.72;25.13;;;10.60;99.90;;;;;;5040211;28;20168;-85
2022/03/25 01:46:26;;;;;;;54.80;25.10;;;10.60;99.90;;;;;;5040893;28;20183;-78
2022/03/25 01:48:53;;;;;;;51.42;26.08;;;10.80;99.90;;;;;;5041098;28;20192;-86
2022/03/25 01:51:29;;;;;;;48.78;24.75;;;10.60;99.90;;;;;;5040803;28;20180;-84
2022/03/25 01:54:18;;;;;;;47.88;24.40;;;10.60;99.90;;;;;;5020829;28;20245;-83
2022/03/25 01:56:45;;;;;;;57.50;25.67;;;10.60;99.90;;;;;;5036861;28;20183;-85
2022/03/25 01:59:10;;;;;;;53.45;25.05;;;10.60;99.90;;;;;;5006546;28;20199;-82
2022/03/25 02:01:39;;;;;;;50.45;26.75;;;10.70;99.90;;;;;;5041596;28;20160;-80
2022/03/25 02:04:06;;;;;;;56.60;26.92;;;10.70;99.90;;;;;;5038631;28;20208;-85
2022/03/25 02:06:35;;;;;;;52.78;24.13;;;10.80;99.90;;;;;;5040167;28;20184;-81
2022/03/25 02:09:01;;;;;;;52.50;26.85;;;10.60;99.90;;;;;;5040006;28;20176;-82
2022/03/25 02:11:28;;;;;;;52.00;26.35;;;10.50;99.90;;;;;;5004704;28;20179;-78
2022/03/25 02:13:54;;;;;;;50.15;25.70;;;10.70;99.90;;;;;;5038116;28;20186;-87
2022/03/25 02:16:32;;;;;;;57.42;27.05;;;10.60;99.90;;;;;;5039791;28;20258;-83
2022/03/25 02:18:58;;;;;;;56.10;26.23;;;10.60;99.90;;;;;;5019194;28;20195;-83
2022/03/25 02:21:23;;;;;;;52.72;26.73;;;10.50;99.90;;;;;;5037829;28;20160;-84
2022/03/25 02:23:49;;;;;;;53.90;27.35;;;10.40;99.90;;;;;;5035366;28;20176;-81
2022/03/25 02:26:15;;;;;;;52.53;27.15;;;10.40;99.90;;;;;;5034522;28;20183;-80
2022/03/25 02:28:40;;;;;;;53.58;27.88;;;10.20;99.90;;;;;;5020491;28;20174;-79
2022/03/25 02:31:06;;;;;;;61.15;26.75;;;10.30;99.90;;;;;;5037607;28;20221;-85
2022/03/25 02:33:32;;;;;;;62.58;30.58;;;10.40;99.90;;;;;;5036222;28;20286;-85
2022/03/25 02:35:57;;;;;;;64.03;31.58;;;10.50;99.90;;;;;;5037961;28;20171;-80
2022/03/25 02:38:24;;;;;;;63.97;28.33;;;10.60;99.90;;;;;;5037701;28;20210;-80
2022/03/25 02:40:50;;;;;;;60.88;27.90;;;10.50;99.90;;;;;;5036089;28;20172;-81
2022/03/25 02:43:17;;;;;;;60.03;28.52;;;10.40;99.90;;;;;;5037839;28;20195;-77
2022/03/25 02:45:42;;;;;;;70.68;32.10;;;10.40;99.90;;;;;;5019087;28;20583;-84
2022/03/25 02:48:09;;;;;;;62.67;30.02;;;10.70;99.90;;;;;;5036050;28;20195;-82
2022/03/25 02:50:36;;;;;;;60.50;29.90;;;10.80;99.90;;;;;;5048880;28;20168;-77
2022/03/25 02:53:03;;;;;;;63.28;31.95;;;10.70;99.90;;;;;;5054512;28;20159;-78
2022/03/25 02:55:30;;;;;;;61.97;30.92;;;10.60;99.90;;;;;;5045530;28;20172;-81
2022/03/25 02:57:56;;;;;;;66.47;31.13;;;10.60;99.90;;;;;;5020563;28;20731;-84
2022/03/25 03:00:25;;;;;;;62.20;31.58;;;10.60;99.90;;;;;;5037616;28;20246;-85
2022/03/25 03:02:51;;;;;;;67.32;30.73;;;10.70;99.90;;;;;;5037972;28;20163;-86
2022/03/25 03:05:17;;;;;;;63.33;32.55;;;10.60;99.90;;;;;;5036617;28;20556;-86
2022/03/25 03:07:47;;;;;;;67.13;27.63;;;10.60;99.90;;;;;;5036389;28;20192;-86
2022/03/25 03:10:13;;;;;;;66.95;30.55;;;10.70;99.90;;;;;;5034026;28;20168;-85
2022/03/25 03:12:40;;;;;;;74.22;30.73;;;10.70;99.90;;;;;;5034225;28;20191;-79
2022/03/25 03:15:06;;;;;;;68.45;30.25;;;10.60;99.90;;;;;;5033591;28;20171;-85
2022/03/25 03:17:32;;;;;;;53.95;28.60;;;10.60;99.90;;;;;;5033540;28;20250;-84
2022/03/25 03:19:58;;;;;;;59.40;29.13;;;10.50;99.90;;;;;;5033318;28;20609;-85
2022/03/25 03:22:23;;;;;;;64.57;29.30;;;10.50;99.90;;;;;;5033408;28;20182;-79
2022/03/25 03:24:51;;;;;;;64.63;28.27;;;10.40;99.90;;;;;;5015875;28;20203;-86
2022/03/25 03:27:17;;;;;;;59.38;28.88;;;10.20;99.90;;;;;;5033080;28;20633;-77
2022/03/25 03:29:43;;;;;;;57.83;27.60;;;10.20;99.90;;;;;;5034549;28;20164;-87
2022/03/25 03:32:09;;;;;;;59.15;28.95;;;10.20;99.90;;;;;;5037168;28;20524;-84
2022/03/25 03:34:35;;;;;;;60.90;28.02;;;10.20;99.90;;;;;;5005888;28;20172;-82
2022/03/25 03:37:01;;;;;;;59.65;29.85;;;10.10;99.90;;;;;;5036119;28;20774;-77
2022/03/25 03:39:27;;;;;;;61.97;29.00;;;10.20;99.90;;;;;;5035406;28;20164;-81
2022/03/25 03:41:52;;;;;;;63.58;29.70;;;10.20;99.90;;;;;;5037578;28;20172;-83
2022/03/25 03:44:18;;;;;;;64.00;30.50;;;10.20;99.90;;;;;;5038880;28;20196;-83
2022/03/25 03:46:43;;;;;;;60.97;28.35;;;10.10;99.90;;;;;;5035189;28;20227;-82
2022/03/25 03:49:10;;;;;;;52.67;26.85;;;10.00;99.90;;;;;;5034001;28;20153;-86
2022/03/25 03:51:36;;;;;;;68.18;31.05;;;9.80;99.90;;;;;;5036925;28;20202;-78
2022/03/25 03:54:03;;;;;;;63.85;29.70;;;10.00;99.90;;;;;;5033668;28;20225;-85
2022/03/25 03:56:29;;;;;;;61.63;29.00;;;10.00;99.90;;;;;;5037827;28;20176;-77
2022/03/25 03:58:54;;;;;;;74.15;30.85;;;10.10;99.90;;;;;;5036703;28;20171;-83
2022/03/25 04:01:20;;;;;;;58.72;29.67;;;9.90;99.90;;;;;;5034521;28;20183;-85
2022/03/25 04:03:46;;;;;;;60.05;30.20;;;10.00;99.90;;;;;;5034002;28;20175;-86
2022/03/25 04:06:12;;;;;;;66.68;30.45;;;10.10;99.90;;;;;;5034518;28;20164;-85
2022/03/25 04:08:38;;;;;;;64.47;31.17;;;10.10;99.90;;;;;;5039502;28;20192;-85
2022/03/25 04:11:04;;;;;;;64.10;29.67;;;10.10;99.90;;;;;;5039390;28;20160;-85
2022/03/25 04:13:30;;;;;;;70.63;33.65;;;10.00;99.90;;;;;;5041791;28;20168;-84
2022/03/25 04:15:56;;;;;;;65.43;33.88;;;10.00;99.90;;;;;;5039506;28;20214;-85
2022/03/25 04:18:22;;;;;;;74.45;32.53;;;10.00;99.90;;;;;;5039446;28;20183;-84
2022/03/25 04:20:50;;;;;;;72.07;33.58;;;9.90;99.90;;;;;;5038226;28;20213;-82
2022/03/25 04:23:16;;;;;;;76.43;33.28;;;9.90;99.90;;;;;;5041014;28;20172;-84
2022/03/25 04:25:42;;;;;;;67.30;32.33;;;9.90;99.90;;;;;;5040747;28;20196;-86
2022/03/25 04:28:09;;;;;;;64.57;34.17;;;10.00;99.90;;;;;;5036493;28;20190;-86
2022/03/25 04:30:37;;;;;;;67.82;32.53;;;10.00;99.90;;;;;;5036377;28;20547;-85
2022/03/25 04:33:04;;;;;;;68.82;32.50;;;9.90;99.90;;;;;;5036278;28;20617;-85
2022/03/25 04:35:30;;;;;;;68.55;31.13;;;10.00;99.90;;;;;;5036700;28;20183;-84
2022/03/25 04:37:57;;;;;;;66.18;32.03;;;10.00;99.90;;;;;;5036353;28;20186;-78
2022/03/25 04:40:25;;;;;;;76.25;33.03;;;9.80;99.90;;;;;;5036401;28;20164;-85
2022/03/25 04:42:52;;;;;;;64.63;31.85;;;9.80;99.90;;;;;;5036790;28;20234;-86
2022/03/25 04:45:19;;;;;;;65.85;32.80;;;9.80;99.90;;;;;;5045557;28;20234;-86
2022/03/25 04:47:45;;;;;;;66.65;31.85;;;9.90;99.90;;;;;;5034710;28;20260;-86
2022/03/25 04:50:11;;;;;;;75.32;32.30;;;9.80;99.90;;;;;;5052889;28;20231;-85
2022/03/25 04:52:37;;;;;;;80.10;31.80;;;9.90;99.90;;;;;;5052726;28;20184;-86
2022/03/25 04:55:04;;;;;;;71.07;33.50;;;9.80;99.90;;;;;;5039075;28;20222;-86
2022/03/25 04:57:30;;;;;;;101.95;34.70;;;9.70;99.90;;;;;;5036949;28;20180;-77
2022/03/25 04:59:55;;;;;;;62.78;32.83;;;9.90;99.90;;;;;;5019131;28;20179;-77
2022/03/25 05:02:22;;;;;;;78.50;33.00;;;9.90;99.90;;;;;;5035840;28;20667;-81
2022/03/25 05:04:48;;;;;;;70.93;33.53;;;9.80;99.90;;;;;;5035418;28;20203;-78
2022/03/25 05:07:14;;;;;;;87.55;33.55;;;9.60;99.90;;;;;;5035688;28;20180;-86
2022/03/25 05:09:40;;;;;;;59.00;30.85;;;9.60;99.90;;;;;;5035751;28;20175;-86
2022/03/25 05:12:06;;;;;;;68.43;31.17;;;9.60;99.90;;;;;;5035564;28;20164;-85
2022/03/25 05:14:34;;;;;;;69.20;32.72;;;9.50;99.90;;;;;;5035228;28;20168;-86
2022/03/25 05:16:59;;;;;;;76.22;30.45;;;9.50;99.90;;;;;;5034953;28;20195;-78
2022/03/25 05:19:25;;;;;;;76.32;32.65;;;9.50;99.90;;;;;;5034369;28;20160;-78
2022/03/25 05:21:51;;;;;;;74.95;34.58;;;9.30;99.90;;;;;;5034891;28;20172;-84
2022/03/25 05:24:17;;;;;;;70.20;32.10;;;9.30;99.90;;;;;;5034875;28;20219;-86
2022/03/25 05:26:43;;;;;;;64.47;31.90;;;9.30;99.90;;;;;;5034966;28;20186;-77
2022/03/25 05:29:09;;;;;;;74.90;34.08;;;9.20;99.90;;;;;;5034905;28;20506;-77
2022/03/25 05:31:36;;;;;;;73.32;32.83;;;9.20;99.90;;;;;;5034887;28;20267;-86
2022/03/25 05:34:04;;;;;;;73.65;31.75;;;9.20;99.90;;;;;;5034661;28;20166;-79
2022/03/25 05:36:31;;;;;;;63.65;32.53;;;9.20;99.90;;;;;;5034697;28;20222;-77
2022/03/25 05:38:57;;;;;;;70.85;33.28;;;9.20;99.90;;;;;;5035163;28;20166;-78
2022/03/25 05:41:24;;;;;;;67.65;32.30;;;9.20;99.90;;;;;;5017222;28;20259;-78
2022/03/25 05:43:50;;;;;;;62.28;30.25;;;9.10;99.90;;;;;;5034964;28;20160;-84
2022/03/25 05:46:16;;;;;;;73.63;31.98;;;9.00;99.90;;;;;;5036711;28;20176;-77
2022/03/25 05:48:42;;;;;;;69.57;32.83;;;9.10;99.90;;;;;;5046218;28;20185;-79
2022/03/25 05:51:07;;;;;;;70.00;29.60;;;9.10;99.90;;;;;;5041416;28;20278;-85
2022/03/25 05:53:33;;;;;;;73.18;32.47;;;9.10;99.90;;;;;;5025992;28;20188;-82
2022/03/25 05:55:59;;;;;;;70.90;32.50;;;9.00;99.90;;;;;;5017339;28;20206;-78
2022/03/25 05:58:26;;;;;;;68.32;31.50;;;9.10;99.90;;;;;;5034297;28;20201;-86
2022/03/25 06:00:51;;;;;;;69.00;31.15;;;9.30;99.90;;;;;;5034517;28;20164;-85
2022/03/25 06:03:17;;;;;;;69.70;30.55;;;9.20;99.90;;;;;;5034506;28;20167;-86
2022/03/25 06:05:42;;;;;;;72.28;31.17;;;9.40;99.90;;;;;;5034090;28;20207;-84
2022/03/25 06:08:09;;;;;;;66.60;30.23;;;9.50;99.90;;;;;;5033716;28;20192;-80
2022/03/25 06:10:35;;;;;;;59.25;30.50;;;9.40;99.90;;;;;;5034096;28;20621;-80
2022/03/25 06:13:01;;;;;;;80.43;31.83;;;9.50;99.90;;;;;;5033965;28;20160;-78
2022/03/25 06:15:27;;;;;;;63.10;31.67;;;9.50;99.90;;;;;;5033774;28;20219;-81
2022/03/25 06:17:53;;;;;;;61.78;29.05;;;9.60;99.90;;;;;;5034323;28;20648;-78
2022/03/25 06:20:20;;;;;;;62.78;30.65;;;9.70;99.90;;;;;;5033675;28;20179;-83
2022/03/25 06:22:47;;;;;;;73.68;31.85;;;9.80;99.90;;;;;;5034185;28;20633;-88
2022/03/25 06:25:13;;;;;;;68.38;30.25;;;9.70;99.90;;;;;;5033776;28;20225;-78
2022/03/25 06:27:57;;;;;;;62.47;29.67;;;9.60;99.90;;;;;;5033586;28;20671;-79
2022/03/25 06:30:25;;;;;;;71.15;30.80;;;9.60;99.90;;;;;;5033609;28;20190;-78
2022/03/25 06:32:51;;;;;;;62.42;27.63;;;9.70;99.90;;;;;;5033884;28;20156;-78
2022/03/25 06:35:18;;;;;;;64.53;30.40;;;9.80;99.90;;;;;;5033705;28;20175;-78
2022/03/25 06:37:44;;;;;;;57.75;28.10;;;9.80;99.90;;;;;;5033766;28;20184;-82
2022/03/25 06:40:11;;;;;;;64.25;29.45;;;9.70;99.90;;;;;;5033494;28;20182;-85
2022/03/25 06:42:38;;;;;;;65.28;29.27;;;9.80;99.90;;;;;;5033492;28;20163;-87
2022/03/25 06:45:05;;;;;;;60.33;30.48;;;10.00;99.90;;;;;;5033841;28;20687;-84
2022/03/25 06:47:31;;;;;;;61.90;28.80;;;10.10;99.90;;;;;;5033637;28;20180;-79
2022/03/25 06:49:57;;;;;;;58.55;29.40;;;10.00;99.90;;;;;;5034135;28;20179;-79
2022/03/25 06:52:24;;;;;;;65.70;28.30;;;9.80;99.90;;;;;;5033538;28;20199;-85
2022/03/25 06:54:50;;;;;;;57.50;27.95;;;9.70;99.90;;;;;;5032753;28;20160;-83
2022/03/25 06:57:16;;;;;;;65.25;28.42;;;9.80;99.90;;;;;;5032723;28;20223;-83
2022/03/25 06:59:42;;;;;;;55.78;28.42;;;9.80;99.90;;;;;;5035725;28;20738;-87
2022/03/25 07:02:10;;;;;;;59.97;27.73;;;9.70;99.90;;;;;;5035137;28;20243;-80
2022/03/25 07:04:37;;;;;;;64.47;27.92;;;9.90;99.90;;;;;;5032755;28;20199;-79
2022/03/25 07:07:04;;;;;;;62.75;27.85;;;10.00;99.90;;;;;;5032861;28;20266;-85
2022/03/25 07:09:30;;;;;;;49.97;26.02;;;10.20;99.90;;;;;;5033397;28;20218;-79
2022/03/25 07:11:57;;;;;;;59.72;24.95;;;10.00;99.90;;;;;;5033417;28;20163;-77
2022/03/25 07:14:22;;;;;;;56.63;27.55;;;10.10;99.90;;;;;;5037526;28;20640;-78
2022/03/25 07:16:48;;;;;;;64.25;28.40;;;10.20;99.90;;;;;;5032748;28;20199;-76
2022/03/25 07:19:13;;;;;;;60.53;27.90;;;10.30;99.90;;;;;;5032230;28;20575;-77
2022/03/25 07:21:39;;;;;;;60.17;26.33;;;10.30;99.90;;;;;;5032722;28;20178;-77
2022/03/25 07:24:05;;;;;;;50.40;23.75;;;10.40;99.90;;;;;;5033011;28;20168;-79
2022/03/25 07:26:31;;;;;;;46.47;25.40;;;10.30;99.90;;;;;;5032906;28;20187;-85
2022/03/25 07:28:57;;;;;;;59.60;27.65;;;10.40;99.90;;;;;;5033257;28;20163;-77
2022/03/25 07:31:28;;;;;;;56.80;25.25;;;10.20;99.90;;;;;;5032998;28;20188;-86
2022/03/25 07:33:56;;;;;;;51.80;25.35;;;10.30;99.90;;;;;;5032353;28;20698;-82
2022/03/25 07:36:22;;;;;;;71.32;27.08;;;10.60;99.90;;;;;;5015524;28;20253;-86
2022/03/25 07:38:48;;;;;;;55.38;25.42;;;10.60;99.90;;;;;;5033947;28;20613;-84
2022/03/25 07:41:13;;;;;;;65.05;25.25;;;10.60;99.90;;;;;;5034575;28;20164;-86
2022/03/25 07:43:39;;;;;;;52.85;26.13;;;10.50;99.90;;;;;;5038850;28;20172;-84
2022/03/25 07:46:05;;;;;;;54.70;26.00;;;10.60;99.90;;;;;;5020718;28;20247;-78
2022/03/25 07:48:31;;;;;;;62.35;25.70;;;10.70;99.90;;;;;;5037094;28;20180;-80
2022/03/25 07:50:57;;;;;;;54.35;26.08;;;10.80;99.90;;;;;;5019647;28;20179;-86
2022/03/25 07:53:23;;;;;;;64.97;28.58;;;10.70;99.90;;;;;;5049626;28;20251;-81
2022/03/25 07:55:51;;;;;;;70.68;27.38;;;10.70;99.90;;;;;;5057234;28;20164;-79
2022/03/25 07:58:21;;;;;;;63.58;27.42;;;10.90;99.90;;;;;;5050999;28;20184;-84
2022/03/25 08:00:47;;;;;;;58.20;26.48;;;11.10;99.90;;;;;;5019668;28;20175;-85
2022/03/25 08:03:13;;;;;;;60.35;27.83;;;11.10;99.90;;;;;;5038105;28;20174;-77
2022/03/25 08:05:39;;;;;;;50.17;25.27;;;11.20;99.90;;;;;;5036568;28;20203;-82
2022/03/25 08:08:05;;;;;;;58.63;28.13;;;11.30;99.90;;;;;;5036508;28;20191;-76
2022/03/25 08:10:32;;;;;;;59.92;26.55;;;11.30;99.90;;;;;;5036944;28;20672;-86
2022/03/25 08:12:58;;;;;;;64.82;29.25;;;11.50;99.90;;;;;;5036321;28;20227;-80
2022/03/25 08:15:27;;;;;;;61.15;27.00;;;11.40;99.90;;;;;;5036370;28;20172;-77
2022/03/25 08:17:58;;;;;;;53.17;27.15;;;11.50;99.90;;;;;;5035689;28;20654;-77
2022/03/25 08:20:33;;;;;;;57.88;27.40;;;11.60;99.90;;;;;;5035997;28;20168;-78
2022/03/25 08:23:00;;;;;;;64.78;27.75;;;11.70;99.90;;;;;;5036544;28;20159;-86
2022/03/25 08:28:13;;;;;;;67.97;27.95;;;11.90;99.90;;;;;;5036365;28;20557;-85
2022/03/25 08:30:40;;;;;;;66.28;32.05;;;12.10;99.90;;;;;;5035819;28;20184;-78
2022/03/25 08:33:06;;;;;;;67.82;32.83;;;12.20;99.90;;;;;;5036621;28;20156;-84
2022/03/25 08:35:32;;;;;;;81.63;33.95;;;12.30;99.90;;;;;;5036092;28;20191;-77
2022/03/25 08:37:58;;;;;;;73.45;33.78;;;12.50;99.90;;;;;;5036130;28;20226;-77
2022/03/25 08:40:26;;;;;;;86.22;36.85;;;12.50;99.90;;;;;;5035955;28;20176;-77
2022/03/25 08:42:52;;;;;;;74.82;35.65;;;12.60;99.90;;;;;;5018925;28;20171;-85
2022/03/25 08:45:18;;;;;;;71.65;34.70;;;12.50;99.90;;;;;;5017704;28;20219;-77
2022/03/25 08:47:45;;;;;;;81.90;36.95;;;12.50;99.90;;;;;;5037286;28;20187;-77
2022/03/25 08:50:13;;;;;;;83.47;36.92;;;12.40;99.90;;;;;;5018213;28;20627;-84
2022/03/25 08:52:42;;;;;;;82.57;35.80;;;12.50;99.90;;;;;;5035878;28;20175;-85
2022/03/25 08:55:12;;;;;;;85.60;39.92;;;12.80;99.90;;;;;;5035675;28;20168;-84
2022/03/25 08:57:39;;;;;;;77.68;35.83;;;13.10;99.90;;;;;;5036274;28;20203;-85
2022/03/25 09:00:10;;;;;;;81.22;37.60;;;13.20;99.90;;;;;;5036539;28;20171;-82
2022/03/25 09:02:36;;;;;;;85.57;36.92;;;13.10;99.90;;;;;;5036786;28;20164;-85
2022/03/25 09:05:02;;;;;;;93.93;38.60;;;13.20;99.90;;;;;;5036149;28;20254;-76
2022/03/25 09:07:28;;;;;;;72.80;36.70;;;13.30;99.90;;;;;;5046876;28;20188;-86
2022/03/25 09:09:53;;;;;;;79.07;35.75;;;13.50;99.90;;;;;;5051319;28;20199;-86
2022/03/25 09:12:19;;;;;;;80.85;36.60;;;13.40;99.90;;;;;;5052223;28;20180;-86
2022/03/25 09:14:45;;;;;;;76.68;35.00;;;13.40;99.90;;;;;;5051123;28;20242;-78
2022/03/25 09:17:10;;;;;;;74.55;34.80;;;13.50;99.90;;;;;;5036337;28;20207;-80
2022/03/25 09:19:36;;;;;;;70.03;33.28;;;13.50;99.90;;;;;;5035792;28;20172;-79
2022/03/25 09:22:01;;;;;;;74.55;32.45;;;13.60;99.90;;;;;;5035566;28;20569;-77
2022/03/25 09:24:27;;;;;;;71.95;32.80;;;13.70;99.90;;;;;;5034649;28;20215;-82
2022/03/25 09:26:53;;;;;;;70.93;30.35;;;13.90;99.90;;;;;;5035100;28;20282;-84
2022/03/25 09:29:18;;;;;;;74.03;30.48;;;14.00;99.90;;;;;;5037850;28;20164;-83
2022/03/25 09:31:44;;;;;;;72.10;32.50;;;14.10;99.90;;;;;;5035120;28;20594;-83
2022/03/25 09:36:55;;;;;;;68.63;29.75;;;13.90;99.90;;;;;;5035756;28;20230;-78
2022/03/25 09:39:21;;;;;;;95.57;27.90;;;13.90;99.90;;;;;;5017407;28;20213;-87
2022/03/25 09:41:47;;;;;;;78.25;27.70;;;14.00;99.90;;;;;;5034599;28;20174;-80
2022/03/25 09:44:16;;;;;;;53.17;27.65;;;13.90;99.90;;;;;;5034524;28;20191;-80
2022/03/25 09:46:43;;;;;;;52.45;25.67;;;14.00;99.90;;;;;;5034420;28;20656;-77
2022/03/25 09:49:09;;;;;;;53.92;25.13;;;13.90;99.90;;;;;;5034466;28;20242;-87
2022/03/25 09:51:36;;;;;;;72.65;28.73;;;13.90;99.90;;;;;;5034606;28;20581;-85
2022/03/25 09:54:03;;;;;;;53.78;26.23;;;14.00;99.90;;;;;;5034541;28;20288;-82
2022/03/25 09:56:28;;;;;;;58.40;27.35;;;14.00;99.90;;;;;;5034408;28;20164;-77
2022/03/25 09:58:54;;;;;;;66.97;27.25;;;14.10;99.90;;;;;;5034282;28;20156;-83
2022/03/25 10:01:20;;;;;;;59.72;25.73;;;14.10;99.90;;;;;;5034889;28;20180;-81
2022/03/25 10:03:46;;;;;;;56.22;25.80;;;14.10;99.90;;;;;;5038098;28;20168;-83
2022/03/25 10:06:12;;;;;;;52.95;25.83;;;14.10;99.90;;;;;;5046221;28;20199;-78
2022/03/25 10:08:38;;;;;;;54.42;25.98;;;14.10;99.90;;;;;;5037357;28;20171;-84
2022/03/25 10:11:22;;;;;;;53.20;23.10;;;14.40;99.90;;;;;;5016212;28;20322;-77
2022/03/25 10:13:50;;;;;;;45.97;22.35;;;14.50;99.90;;;;;;5033909;28;20164;-81
2022/03/25 10:16:31;;;;;;;51.60;19.27;;;14.50;99.90;;;;;;5033874;28;20187;-80
2022/03/25 10:18:58;;;;;;;37.00;17.58;;;14.50;99.90;;;;;;5033183;28;20183;-82
2022/03/25 10:21:24;;;;;;;40.08;17.27;;;14.50;99.90;;;;;;5033857;28;20247;-84
2022/03/25 10:23:51;;;;;;;41.85;18.67;;;14.50;99.90;;;;;;5033909;28;20171;-85
2022/03/25 10:26:16;;;;;;;31.08;15.60;;;14.50;99.90;;;;;;5017319;28;20560;-76
2022/03/25 10:28:44;;;;;;;32.53;15.77;;;14.60;99.90;;;;;;5040622;28;20171;-84
2022/03/25 10:31:11;;;;;;;41.20;16.15;;;14.70;99.90;;;;;;5034660;28;20183;-78
2022/03/25 10:33:43;;;;;;;34.53;15.82;;;14.60;99.90;;;;;;5035169;28;20160;-80
2022/03/25 10:36:10;;;;;;;39.67;18.15;;;14.40;99.90;;;;;;5034815;28;20218;-83
2022/03/25 10:38:54;;;;;;;33.05;18.10;;;14.50;99.90;;;;;;5034528;28;20191;-78
2022/03/25 10:41:22;;;;;;;42.05;17.02;;;14.70;99.90;;;;;;5033647;28;20189;-85
2022/03/25 10:44:03;;;;;;;34.97;16.70;;;15.10;99.90;;;;;;5039770;28;20167;-78
2022/03/25 10:46:39;;;;;;;38.10;18.30;;;15.20;99.90;;;;;;5039360;28;20178;-86
2022/03/25 10:49:07;;;;;;;40.42;16.92;;;15.30;99.90;;;;;;5032047;28;20171;-80
2022/03/25 10:51:56;;;;;;;35.40;18.25;;;15.30;99.90;;;;;;5027404;28;20184;-81
2022/03/25 10:54:26;;;;;;;43.35;19.42;;;15.40;99.90;;;;;;5025255;28;20183;-80
2022/03/25 10:56:53;;;;;;;32.47;16.77;;;15.30;99.90;;;;;;5046905;28;20196;-80
2022/03/25 10:59:25;;;;;;;40.90;16.85;;;15.10;99.90;;;;;;5043356;28;20171;-77
2022/03/25 11:02:05;;;;;;;30.38;16.23;;;15.30;99.90;;;;;;5027797;28;20534;-80
2022/03/25 11:04:31;;;;;;;39.83;16.30;;;15.50;99.00;;;;;;5036257;28;20204;-82
2022/03/25 11:06:58;;;;;;;32.78;15.55;;;15.50;98.00;;;;;;5036797;28;20275;-87
2022/03/25 11:09:27;;;;;;;34.88;17.15;;;15.30;97.70;;;;;;5035465;28;20201;-78
2022/03/25 11:11:53;;;;;;;25.95;13.55;;;15.40;98.30;;;;;;5033179;28;20163;-79
2022/03/25 11:14:20;;;;;;;30.50;14.18;;;15.50;97.60;;;;;;5034969;28;20172;-79
2022/03/25 11:16:48;;;;;;;30.13;15.02;;;15.50;96.80;;;;;;5035601;28;20195;-76
2022/03/25 11:19:15;;;;;;;26.35;14.15;;;15.50;97.30;;;;;;5036911;28;20167;-85
2022/03/25 11:21:46;;;;;;;27.42;13.45;;;15.60;96.70;;;;;;5037063;28;20655;-80
2022/03/25 11:24:40;;;;;;;33.15;14.27;;;15.60;96.90;;;;;;5036933;28;20176;-87
2022/03/25 11:27:15;;;;;;;31.50;14.93;;;15.70;96.30;;;;;;5037222;28;20184;-78
2022/03/25 11:29:45;;;;;;;26.52;12.63;;;15.70;95.70;;;;;;5037655;28;20166;-87
2022/03/25 11:32:15;;;;;;;35.20;14.73;;;15.70;95.70;;;;;;5037537;28;20160;-79
2022/03/25 11:34:56;;;;;;;29.48;15.63;;;15.90;95.60;;;;;;5037874;28;20580;-84
2022/03/25 11:37:24;;;;;;;33.45;13.60;;;16.00;96.10;;;;;;5037208;28;20738;-84
2022/03/25 11:40:15;;;;;;;30.10;14.30;;;15.90;95.60;;;;;;5037472;28;20167;-87
2022/03/25 11:42:50;;;;;;;34.17;13.68;;;15.80;95.50;;;;;;5037468;28;20172;-77
2022/03/25 11:45:22;;;;;;;32.42;16.08;;;15.90;95.90;;;;;;5036946;28;20205;-84
2022/03/25 11:47:59;;;;;;;41.63;16.65;;;15.90;96.00;;;;;;5036840;28;20188;-83
2022/03/25 11:50:40;;;;;;;33.08;16.10;;;15.80;96.20;;;;;;5038414;28;20179;-77
2022/03/25 11:53:11;;;;;;;35.17;13.93;;;15.80;95.80;;;;;;5036443;28;20174;-77
2022/03/25 11:56:12;;;;;;;19.58;12.52;;;16.00;95.30;;;;;;5036679;28;20168;-80
2022/03/25 11:58:55;;;;;;;36.35;14.43;;;16.10;95.20;;;;;;5036742;28;20168;-77
2022/03/25 12:01:22;;;;;;;23.77;11.90;;;16.10;95.20;;;;;;5036646;28;20617;-77
2022/03/25 12:03:53;;;;;;;31.17;14.60;;;16.30;94.00;;;;;;5036277;28;20167;-85
2022/03/25 12:06:22;;;;;;;24.45;13.90;;;16.20;94.40;;;;;;5035760;28;20625;-77
2022/03/25 12:08:56;;;;;;;27.58;13.30;;;16.30;93.80;;;;;;5036238;28;20194;-81
2022/03/25 12:11:55;;;;;;;33.75;15.35;;;16.20;94.00;;;;;;5036390;28;20317;-76
2022/03/25 12:14:31;;;;;;;39.42;14.45;;;16.40;94.50;;;;;;5036038;28;20245;-78
2022/03/25 12:17:07;;;;;;;22.45;12.60;;;16.30;94.40;;;;;;5035974;28;20663;-85
2022/03/25 12:19:38;;;;;;;26.38;13.98;;;16.10;94.20;;;;;;5035864;28;20191;-86
2022/03/25 12:22:25;;;;;;;29.33;13.55;;;16.20;94.50;;;;;;5037815;28;20221;-77
2022/03/25 12:24:55;;;;;;;27.83;15.45;;;16.40;93.90;;;;;;5044719;28;20229;-80
2022/03/25 12:27:23;;;;;;;30.08;14.77;;;16.60;94.10;;;;;;5054090;28;20611;-77
2022/03/25 12:29:53;;;;;;;32.25;13.52;;;16.40;94.30;;;;;;5037703;28;20252;-80
2022/03/25 12:32:21;;;;;;;25.92;12.68;;;16.20;94.50;;;;;;5035734;28;20179;-83
2022/03/25 12:35:08;;;;;;;31.55;14.00;;;16.30;94.90;;;;;;5017689;28;20270;-79
2022/03/25 12:37:39;;;;;;;29.38;13.48;;;16.20;94.80;;;;;;5035503;28;20242;-77